Bayamo, Cuba
Current Conditions -  °F | °C
As of 9:50 AM on Saturday 20 Dec 2014 (Local Time) from MUHG Reporting Station
Few Clouds Few Clouds  
Wind Chill: 73°   Ceiling: Unl
Heat Index: 73°   Visibility: 6mi
Dew Point: 64°   Wind: 1mph
Humidity: 73%   Direction: NA
Pressure: 30.06"   Gusts: NA
Location:  20.38°N, 76.65°W
Report Text: MUHG 201350Z VRB01KT 9000 FEW025 23/18 Q1018
Loading
Personal Weather Stations






























Interactive Weather Map New forecast layout! Learn more

10-Day Weather Forecast

Advertisements
Track Severe Weather on mobile